Terminal Aerodrome Forecast
Issued by NWS

Home | Current Version | Previous Version | Text Only | Print | Product List | Glossary On
Versions: 1 2 3 4 5 6 7 8 9 10 11 12 13 14 15 16 17 18
000
FTUS41 KBOX 290525
TAFHYA
TAF
KHYA 290525Z 2906/3006 14005KT P6SM OVC090
     FM290800 10006KT P6SM OVC090
     FM291700 09010KT P6SM BKN250
     FM300300 09006KT P6SM OVC090=

USA.gov is the U.S. government's official web portal to all federal, state and local government web resources and services.